sensor_id;sensor_type;location;lat;lon;timestamp;pressure;altitude;pressure_sealevel;temperature;humidity
26043;BME280;13818;52.156;5.382;2022-09-21T00:00:38;102404.03;;;12.54;100.00
26043;BME280;13818;52.156;5.382;2022-09-21T00:03:04;102413.19;;;12.45;100.00
26043;BME280;13818;52.156;5.382;2022-09-21T00:05:31;102398.22;;;12.40;100.00
26043;BME280;13818;52.156;5.382;2022-09-21T00:07:58;102407.22;;;12.35;100.00
26043;BME280;13818;52.156;5.382;2022-09-21T00:10:25;102403.13;;;12.24;100.00
26043;BME280;13818;52.156;5.382;2022-09-21T00:12:51;102404.19;;;12.18;100.00
26043;BME280;13818;52.156;5.382;2022-09-21T00:15:19;102407.31;;;12.01;100.00
26043;BME280;13818;52.156;5.382;2022-09-21T00:17:45;102406.66;;;11.91;100.00
26043;BME280;13818;52.156;5.382;2022-09-21T00:20:12;102407.59;;;11.88;100.00
26043;BME280;13818;52.156;5.382;2022-09-21T00:22:39;102405.09;;;11.82;100.00
26043;BME280;13818;52.156;5.382;2022-09-21T00:25:06;102398.63;;;11.91;100.00
26043;BME280;13818;52.156;5.382;2022-09-21T00:27:32;102406.47;;;11.99;100.00
26043;BME280;13818;52.156;5.382;2022-09-21T00:29:59;102406.44;;;12.00;100.00
26043;BME280;13818;52.156;5.382;2022-09-21T00:32:27;102402.81;;;12.03;100.00
26043;BME280;13818;52.156;5.382;2022-09-21T00:34:55;102394.06;;;11.98;100.00
26043;BME280;13818;52.156;5.382;2022-09-21T00:37:22;102396.00;;;11.89;100.00
26043;BME280;13818;52.156;5.382;2022-09-21T00:39:49;102403.22;;;11.86;100.00
26043;BME280;13818;52.156;5.382;2022-09-21T00:42:16;102407.78;;;11.82;100.00
26043;BME280;13818;52.156;5.382;2022-09-21T00:44:43;102405.94;;;11.84;100.00
26043;BME280;13818;52.156;5.382;2022-09-21T00:47:10;102404.28;;;11.80;100.00
26043;BME280;13818;52.156;5.382;2022-09-21T00:49:39;102406.25;;;11.72;100.00
26043;BME280;13818;52.156;5.382;2022-09-21T00:52:06;102407.38;;;11.63;100.00
26043;BME280;13818;52.156;5.382;2022-09-21T00:54:34;102414.03;;;11.47;100.00
26043;BME280;13818;52.156;5.382;2022-09-21T00:57:03;102409.84;;;11.36;100.00
26043;BME280;13818;52.156;5.382;2022-09-21T00:59:30;102411.84;;;11.27;100.00
26043;BME280;13818;52.156;5.382;2022-09-21T01:01:58;102411.78;;;11.28;100.00
26043;BME280;13818;52.156;5.382;2022-09-21T01:04:24;102410.81;;;11.32;100.00
26043;BME280;13818;52.156;5.382;2022-09-21T01:06:53;102412.47;;;11.38;100.00
26043;BME280;13818;52.156;5.382;2022-09-21T01:09:20;102408.72;;;11.45;100.00
26043;BME280;13818;52.156;5.382;2022-09-21T01:11:50;102417.50;;;11.50;100.00
26043;BME280;13818;52.156;5.382;2022-09-21T01:14:32;102411.28;;;11.50;100.00
26043;BME280;13818;52.156;5.382;2022-09-21T01:17:04;102401.44;;;11.52;100.00
26043;BME280;13818;52.156;5.382;2022-09-21T01:19:49;102407.56;;;11.55;100.00
26043;BME280;13818;52.156;5.382;2022-09-21T01:22:22;102406.66;;;11.56;100.00
26043;BME280;13818;52.156;5.382;2022-09-21T01:24:56;102412.47;;;11.38;100.00
26043;BME280;13818;52.156;5.382;2022-09-21T01:27:38;102419.19;;;11.17;100.00
26043;BME280;13818;52.156;5.382;2022-09-21T01:30:09;102411.31;;;11.12;100.00
26043;BME280;13818;52.156;5.382;2022-09-21T01:32:37;102417.91;;;10.94;100.00
26043;BME280;13818;52.156;5.382;2022-09-21T01:35:06;102406.06;;;10.68;100.00
26043;BME280;13818;52.156;5.382;2022-09-21T01:37:36;102415.91;;;10.65;100.00
26043;BME280;13818;52.156;5.382;2022-09-21T01:40:06;102414.56;;;10.44;100.00
26043;BME280;13818;52.156;5.382;2022-09-21T01:42:35;102412.13;;;10.30;100.00
26043;BME280;13818;52.156;5.382;2022-09-21T01:45:03;102409.66;;;10.20;100.00
26043;BME280;13818;52.156;5.382;2022-09-21T01:47:32;102406.28;;;10.10;100.00
26043;BME280;13818;52.156;5.382;2022-09-21T01:50:00;102394.88;;;10.04;100.00
26043;BME280;13818;52.156;5.382;2022-09-21T01:52:29;102400.25;;;10.01;100.00
26043;BME280;13818;52.156;5.382;2022-09-21T01:54:59;102413.69;;;9.96;100.00
26043;BME280;13818;52.156;5.382;2022-09-21T01:57:28;102409.28;;;9.93;100.00
26043;BME280;13818;52.156;5.382;2022-09-21T01:59:57;102415.50;;;9.92;100.00
26043;BME280;13818;52.156;5.382;2022-09-21T02:02:27;102409.28;;;9.93;100.00
26043;BME280;13818;52.156;5.382;2022-09-21T02:04:57;102407.38;;;10.00;100.00
26043;BME280;13818;52.156;5.382;2022-09-21T02:07:24;102414.47;;;10.01;100.00
26043;BME280;13818;52.156;5.382;2022-09-21T02:09:50;102397.66;;;9.98;100.00
26043;BME280;13818;52.156;5.382;2022-09-21T02:12:18;102408.34;;;9.96;100.00
26043;BME280;13818;52.156;5.382;2022-09-21T02:14:45;102409.16;;;10.01;100.00
26043;BME280;13818;52.156;5.382;2022-09-21T02:17:14;102412.53;;;10.09;100.00
26043;BME280;13818;52.156;5.382;2022-09-21T02:19:45;102410.63;;;10.15;100.00
26043;BME280;13818;52.156;5.382;2022-09-21T02:22:16;102406.13;;;10.18;100.00
26043;BME280;13818;52.156;5.382;2022-09-21T02:24:49;102407.00;;;10.20;100.00
26043;BME280;13818;52.156;5.382;2022-09-21T02:27:22;102407.00;;;10.20;100.00
26043;BME280;13818;52.156;5.382;2022-09-21T02:29:55;102405.31;;;10.15;100.00
26043;BME280;13818;52.156;5.382;2022-09-21T02:32:26;102411.44;;;10.20;100.00
26043;BME280;13818;52.156;5.382;2022-09-21T02:34:58;102413.03;;;10.29;100.00
26043;BME280;13818;52.156;5.382;2022-09-21T02:37:31;102408.47;;;10.35;100.00
26043;BME280;13818;52.156;5.382;2022-09-21T02:39:59;102403.09;;;10.38;100.00
26043;BME280;13818;52.156;5.382;2022-09-21T02:42:28;102412.84;;;10.41;100.00
26043;BME280;13818;52.156;5.382;2022-09-21T02:44:57;102404.78;;;10.44;100.00
26043;BME280;13818;52.156;5.382;2022-09-21T02:47:25;102406.50;;;10.47;100.00
26043;BME280;13818;52.156;5.382;2022-09-21T02:49:56;102402.25;;;10.35;100.00
26043;BME280;13818;52.156;5.382;2022-09-21T02:52:24;102406.03;;;10.24;100.00
26043;BME280;13818;52.156;5.382;2022-09-21T02:54:52;102402.44;;;10.25;100.00
26043;BME280;13818;52.156;5.382;2022-09-21T02:57:21;102394.38;;;10.29;100.00
26043;BME280;13818;52.156;5.382;2022-09-21T02:59:48;102397.09;;;10.27;100.00
26043;BME280;13818;52.156;5.382;2022-09-21T03:02:15;102399.94;;;10.18;100.00
26043;BME280;13818;52.156;5.382;2022-09-21T03:04:42;102391.16;;;10.11;100.00
26043;BME280;13818;52.156;5.382;2022-09-21T03:07:11;102395.72;;;10.06;100.00
26043;BME280;13818;52.156;5.382;2022-09-21T03:09:38;102395.81;;;10.01;100.00
26043;BME280;13818;52.156;5.382;2022-09-21T03:12:05;102400.25;;;10.02;100.00
26043;BME280;13818;52.156;5.382;2022-09-21T03:14:32;102394.97;;;9.99;100.00
26043;BME280;13818;52.156;5.382;2022-09-21T03:16:58;102402.22;;;9.91;100.00
26043;BME280;13818;52.156;5.382;2022-09-21T03:19:24;102413.00;;;9.85;100.00
26043;BME280;13818;52.156;5.382;2022-09-21T03:21:52;102410.25;;;9.88;100.00
26043;BME280;13818;52.156;5.382;2022-09-21T03:24:19;102409.44;;;9.84;100.00
26043;BME280;13818;52.156;5.382;2022-09-21T03:27:06;102406.84;;;9.81;100.00
26043;BME280;13818;52.156;5.382;2022-09-21T03:29:33;102413.06;;;9.80;100.00
26043;BME280;13818;52.156;5.382;2022-09-21T03:32:00;102414.94;;;9.75;100.00
26043;BME280;13818;52.156;5.382;2022-09-21T03:34:26;102420.25;;;9.75;100.00
26043;BME280;13818;52.156;5.382;2022-09-21T03:36:52;102409.41;;;9.87;100.00
26043;BME280;13818;52.156;5.382;2022-09-21T03:39:19;102423.47;;;9.94;100.00
26043;BME280;13818;52.156;5.382;2022-09-21T03:41:45;102419.88;;;9.97;100.00
26043;BME280;13818;52.156;5.382;2022-09-21T03:44:13;102418.00;;;10.02;100.00
26043;BME280;13818;52.156;5.382;2022-09-21T03:46:41;102425.88;;;10.08;100.00
26043;BME280;13818;52.156;5.382;2022-09-21T03:49:08;102417.69;;;10.17;100.00
26043;BME280;13818;52.156;5.382;2022-09-21T03:51:34;102424.69;;;10.24;100.00
26043;BME280;13818;52.156;5.382;2022-09-21T03:54:00;102415.66;;;10.32;100.00
26043;BME280;13818;52.156;5.382;2022-09-21T03:56:26;102422.66;;;10.37;100.00
26043;BME280;13818;52.156;5.382;2022-09-21T03:58:53;102411.94;;;10.42;100.00
26043;BME280;13818;52.156;5.382;2022-09-21T04:01:20;102415.56;;;10.38;100.00
26043;BME280;13818;52.156;5.382;2022-09-21T04:03:47;102410.25;;;10.35;100.00
26043;BME280;13818;52.156;5.382;2022-09-21T04:06:13;102412.91;;;10.35;100.00
26043;BME280;13818;52.156;5.382;2022-09-21T04:08:39;102408.41;;;10.41;100.00
26043;BME280;13818;52.156;5.382;2022-09-21T04:11:08;102403.84;;;10.47;100.00
26043;BME280;13818;52.156;5.382;2022-09-21T04:13:35;102417.09;;;10.50;100.00
26043;BME280;13818;52.156;5.382;2022-09-21T04:16:02;102412.84;;;10.41;100.00
26043;BME280;13818;52.156;5.382;2022-09-21T04:18:29;102404.84;;;10.41;100.00
26043;BME280;13818;52.156;5.382;2022-09-21T04:20:56;102413.66;;;10.45;100.00
26043;BME280;13818;52.156;5.382;2022-09-21T04:23:22;102419.16;;;10.35;100.00
26043;BME280;13818;52.156;5.382;2022-09-21T04:25:48;102418.56;;;10.19;100.00
26043;BME280;13818;52.156;5.382;2022-09-21T04:28:15;102416.63;;;10.28;100.00
26043;BME280;13818;52.156;5.382;2022-09-21T04:30:42;102412.97;;;10.33;100.00
26043;BME280;13818;52.156;5.382;2022-09-21T04:33:08;102407.56;;;10.38;100.00
26043;BME280;13818;52.156;5.382;2022-09-21T04:35:36;102414.72;;;10.36;100.00
26043;BME280;13818;52.156;5.382;2022-09-21T04:38:03;102404.97;;;10.33;100.00
26043;BME280;13818;52.156;5.382;2022-09-21T04:40:29;102409.34;;;10.39;100.00
26043;BME280;13818;52.156;5.382;2022-09-21T04:42:56;102411.06;;;10.41;100.00
26043;BME280;13818;52.156;5.382;2022-09-21T04:45:23;102411.06;;;10.40;100.00
26043;BME280;13818;52.156;5.382;2022-09-21T04:47:49;102415.94;;;10.18;100.00
26043;BME280;13818;52.156;5.382;2022-09-21T04:50:16;102420.03;;;10.34;100.00
26043;BME280;13818;52.156;5.382;2022-09-21T04:52:44;102416.75;;;10.21;100.00
26043;BME280;13818;52.156;5.382;2022-09-21T04:55:11;102421.16;;;10.22;100.00
26043;BME280;13818;52.156;5.382;2022-09-21T04:57:38;102416.75;;;10.20;100.00
26043;BME280;13818;52.156;5.382;2022-09-21T05:00:05;102420.34;;;10.19;100.00
26043;BME280;13818;52.156;5.382;2022-09-21T05:02:32;102411.44;;;10.21;100.00
26043;BME280;13818;52.156;5.382;2022-09-21T05:04:58;102422.94;;;10.22;100.00
26043;BME280;13818;52.156;5.382;2022-09-21T05:07:24;102418.66;;;10.13;100.00
26043;BME280;13818;52.156;5.382;2022-09-21T05:09:52;102424.13;;;10.07;100.00
26043;BME280;13818;52.156;5.382;2022-09-21T05:12:27;102427.66;;;10.09;100.00
26043;BME280;13818;52.156;5.382;2022-09-21T05:14:54;102427.88;;;9.97;100.00
26043;BME280;13818;52.156;5.382;2022-09-21T05:17:21;102432.25;;;9.99;100.00
26043;BME280;13818;52.156;5.382;2022-09-21T05:19:47;102436.88;;;9.89;100.00
26043;BME280;13818;52.156;5.382;2022-09-21T05:22:13;102443.25;;;9.79;100.00
26043;BME280;13818;52.156;5.382;2022-09-21T05:24:40;102437.13;;;9.74;100.00
26043;BME280;13818;52.156;5.382;2022-09-21T05:27:07;102446.13;;;9.68;100.00
26043;BME280;13818;52.156;5.382;2022-09-21T05:29:34;102446.16;;;9.65;100.00
26043;BME280;13818;52.156;5.382;2022-09-21T05:32:02;102435.56;;;9.62;100.00
26043;BME280;13818;52.156;5.382;2022-09-21T05:34:33;102441.91;;;9.55;100.00
26043;BME280;13818;52.156;5.382;2022-09-21T05:37:02;102445.44;;;9.55;100.00
26043;BME280;13818;52.156;5.382;2022-09-21T05:39:31;102445.31;;;9.61;100.00
26043;BME280;13818;52.156;5.382;2022-09-21T05:41:59;102448.88;;;9.62;100.00
26043;BME280;13818;52.156;5.382;2022-09-21T05:44:27;102443.56;;;9.60;100.00
26043;BME280;13818;52.156;5.382;2022-09-21T05:46:55;102453.41;;;9.57;100.00
26043;BME280;13818;52.156;5.382;2022-09-21T05:49:25;102450.94;;;9.44;100.00
26043;BME280;13818;52.156;5.382;2022-09-21T05:51:58;102450.75;;;9.55;100.00
26043;BME280;13818;52.156;5.382;2022-09-21T05:54:29;102454.22;;;9.62;100.00
26043;BME280;13818;52.156;5.382;2022-09-21T05:56:59;102448.00;;;9.61;100.00
26043;BME280;13818;52.156;5.382;2022-09-21T05:59:37;102452.72;;;9.97;100.00
26043;BME280;13818;52.156;5.382;2022-09-21T06:02:07;102457.47;;;10.75;100.00
26043;BME280;13818;52.156;5.382;2022-09-21T06:04:39;102460.66;;;11.32;100.00
26043;BME280;13818;52.156;5.382;2022-09-21T06:07:05;102461.19;;;11.84;100.00
26043;BME280;13818;52.156;5.382;2022-09-21T06:09:32;102461.88;;;12.27;100.00
26043;BME280;13818;52.156;5.382;2022-09-21T06:11:58;102455.84;;;12.81;100.00
26043;BME280;13818;52.156;5.382;2022-09-21T06:14:24;102461.94;;;13.16;100.00
26043;BME280;13818;52.156;5.382;2022-09-21T06:16:52;102466.97;;;13.56;100.00
26043;BME280;13818;52.156;5.382;2022-09-21T06:19:19;102463.22;;;13.88;100.00
26043;BME280;13818;52.156;5.382;2022-09-21T06:21:45;102459.50;;;14.18;100.00
26043;BME280;13818;52.156;5.382;2022-09-21T06:24:12;102462.53;;;14.57;100.00
26043;BME280;13818;52.156;5.382;2022-09-21T06:26:38;102466.53;;;14.71;100.00
26043;BME280;13818;52.156;5.382;2022-09-21T06:29:04;102460.78;;;14.82;100.00
26043;BME280;13818;52.156;5.382;2022-09-21T06:31:31;102468.56;;;15.11;100.00
26043;BME280;13818;52.156;5.382;2022-09-21T06:33:59;102483.53;;;15.85;100.00
26043;BME280;13818;52.156;5.382;2022-09-21T06:36:25;102475.34;;;16.09;98.92
26043;BME280;13818;52.156;5.382;2022-09-21T06:38:51;102472.66;;;16.09;95.54
26043;BME280;13818;52.156;5.382;2022-09-21T06:41:18;102473.69;;;16.46;93.25
26043;BME280;13818;52.156;5.382;2022-09-21T06:43:44;102467.75;;;16.58;91.98
26043;BME280;13818;52.156;5.382;2022-09-21T06:46:10;102472.59;;;16.90;87.68
26043;BME280;13818;52.156;5.382;2022-09-21T06:48:37;102478.53;;;17.17;85.38
26043;BME280;13818;52.156;5.382;2022-09-21T06:51:04;102473.31;;;17.68;83.10
26043;BME280;13818;52.156;5.382;2022-09-21T06:53:32;102476.88;;;17.51;83.54
26043;BME280;13818;52.156;5.382;2022-09-21T06:55:59;102474.56;;;17.61;82.14
26043;BME280;13818;52.156;5.382;2022-09-21T06:58:25;102470.97;;;17.43;83.26
26043;BME280;13818;52.156;5.382;2022-09-21T07:00:52;102471.44;;;17.34;85.93
26043;BME280;13818;52.156;5.382;2022-09-21T07:03:18;102468.59;;;17.37;85.83
26043;BME280;13818;52.156;5.382;2022-09-21T07:05:45;102476.78;;;16.97;88.78
26043;BME280;13818;52.156;5.382;2022-09-21T07:08:12;102474.81;;;16.61;92.53
26043;BME280;13818;52.156;5.382;2022-09-21T07:10:39;102478.34;;;16.42;94.82
26043;BME280;13818;52.156;5.382;2022-09-21T07:13:05;102482.19;;;16.37;97.23
26043;BME280;13818;52.156;5.382;2022-09-21T07:15:34;102482.44;;;16.51;96.92
26043;BME280;13818;52.156;5.382;2022-09-21T07:18:08;102484.47;;;16.86;94.88
26043;BME280;13818;52.156;5.382;2022-09-21T07:20:35;102484.19;;;16.52;96.91
26043;BME280;13818;52.156;5.382;2022-09-21T07:23:08;102479.53;;;16.56;96.44
26043;BME280;13818;52.156;5.382;2022-09-21T07:25:36;102485.50;;;16.23;100.00
26043;BME280;13818;52.156;5.382;2022-09-21T07:28:02;102481.91;;;16.22;100.00
26043;BME280;13818;52.156;5.382;2022-09-21T07:30:29;102482.38;;;15.91;100.00
26043;BME280;13818;52.156;5.382;2022-09-21T07:32:55;102484.38;;;15.86;100.00
26043;BME280;13818;52.156;5.382;2022-09-21T07:35:22;102484.75;;;15.99;100.00
26043;BME280;13818;52.156;5.382;2022-09-21T07:37:48;102482.06;;;15.76;100.00
26043;BME280;13818;52.156;5.382;2022-09-21T07:40:15;102477.75;;;15.50;100.00
26043;BME280;13818;52.156;5.382;2022-09-21T07:42:42;102486.31;;;15.82;100.00
26043;BME280;13818;52.156;5.382;2022-09-21T07:45:10;102482.78;;;16.43;100.00
26043;BME280;13818;52.156;5.382;2022-09-21T07:47:38;102489.59;;;16.11;100.00
26043;BME280;13818;52.156;5.382;2022-09-21T07:50:05;102480.91;;;16.04;100.00
26043;BME280;13818;52.156;5.382;2022-09-21T07:52:31;102484.19;;;15.90;100.00
26043;BME280;13818;52.156;5.382;2022-09-21T07:54:58;102480.31;;;15.75;100.00
26043;BME280;13818;52.156;5.382;2022-09-21T07:57:24;102480.81;;;16.07;100.00
26043;BME280;13818;52.156;5.382;2022-09-21T08:00:09;102479.22;;;16.22;100.00
26043;BME280;13818;52.156;5.382;2022-09-21T08:02:36;102474.81;;;16.21;100.00
26043;BME280;13818;52.156;5.382;2022-09-21T08:05:02;102479.84;;;16.69;99.46
26043;BME280;13818;52.156;5.382;2022-09-21T08:07:29;102481.06;;;16.22;100.00
26043;BME280;13818;52.156;5.382;2022-09-21T08:09:56;102469.31;;;16.43;100.00
26043;BME280;13818;52.156;5.382;2022-09-21T08:12:22;102474.81;;;16.61;99.30
26043;BME280;13818;52.156;5.382;2022-09-21T08:14:48;102464.88;;;16.63;99.27
26043;BME280;13818;52.156;5.382;2022-09-21T08:17:16;102465.81;;;16.81;98.34
26043;BME280;13818;52.156;5.382;2022-09-21T08:19:42;102469.13;;;16.48;100.00
26043;BME280;13818;52.156;5.382;2022-09-21T08:22:09;102466.03;;;16.76;98.78
26043;BME280;13818;52.156;5.382;2022-09-21T08:24:36;102475.13;;;16.74;100.00
26043;BME280;13818;52.156;5.382;2022-09-21T08:27:03;102477.25;;;16.67;100.00
26043;BME280;13818;52.156;5.382;2022-09-21T08:29:29;102475.28;;;16.90;99.42
26043;BME280;13818;52.156;5.382;2022-09-21T08:31:55;102478.34;;;16.82;100.00
26043;BME280;13818;52.156;5.382;2022-09-21T08:34:23;102489.50;;;17.32;98.19
26043;BME280;13818;52.156;5.382;2022-09-21T08:36:50;102487.41;;;17.19;97.77
26043;BME280;13818;52.156;5.382;2022-09-21T08:39:16;102493.44;;;17.24;96.66
26043;BME280;13818;52.156;5.382;2022-09-21T08:44:24;102496.53;;;17.53;93.65
26043;BME280;13818;52.156;5.382;2022-09-21T08:46:54;102497.38;;;17.73;93.71
26043;BME280;13818;52.156;5.382;2022-09-21T08:49:26;102494.97;;;17.67;94.93
26043;BME280;13818;52.156;5.382;2022-09-21T08:51:53;102489.03;;;17.60;93.90
26043;BME280;13818;52.156;5.382;2022-09-21T08:54:23;102494.56;;;17.57;93.88
26043;BME280;13818;52.156;5.382;2022-09-21T08:56:52;102489.59;;;17.30;94.89
26043;BME280;13818;52.156;5.382;2022-09-21T08:59:18;102491.78;;;17.59;92.29
26043;BME280;13818;52.156;5.382;2022-09-21T09:01:49;102495.78;;;17.32;94.25
26043;BME280;13818;52.156;5.382;2022-09-21T09:04:26;102496.06;;;17.26;94.50
26043;BME280;13818;52.156;5.382;2022-09-21T09:07:00;102498.41;;;17.34;94.10
26043;BME280;13818;52.156;5.382;2022-09-21T09:09:32;102497.25;;;17.57;91.76
26043;BME280;13818;52.156;5.382;2022-09-21T09:12:09;102497.88;;;17.99;87.25
26043;BME280;13818;52.156;5.382;2022-09-21T09:14:48;102497.16;;;17.95;85.06
26043;BME280;13818;52.156;5.382;2022-09-21T09:17:23;102496.25;;;17.77;80.72
26043;BME280;13818;52.156;5.382;2022-09-21T09:19:55;102499.31;;;17.52;83.64
26043;BME280;13818;52.156;5.382;2022-09-21T09:22:24;102498.66;;;17.47;80.03
26043;BME280;13818;52.156;5.382;2022-09-21T09:24:54;102509.91;;;17.74;83.07
26043;BME280;13818;52.156;5.382;2022-09-21T09:27:22;102502.56;;;17.95;82.84
26043;BME280;13818;52.156;5.382;2022-09-21T09:29:53;102502.25;;;18.01;81.00
26043;BME280;13818;52.156;5.382;2022-09-21T09:32:23;102509.31;;;17.67;82.79
26043;BME280;13818;52.156;5.382;2022-09-21T09:34:52;102502.81;;;17.54;86.36
26043;BME280;13818;52.156;5.382;2022-09-21T09:37:22;102507.63;;;17.47;84.88
26043;BME280;13818;52.156;5.382;2022-09-21T09:39:51;102503.91;;;17.31;78.31
26043;BME280;13818;52.156;5.382;2022-09-21T09:42:22;102506.56;;;17.32;81.91
26043;BME280;13818;52.156;5.382;2022-09-21T09:44:56;102501.19;;;17.69;79.22
26043;BME280;13818;52.156;5.382;2022-09-21T09:47:29;102509.03;;;17.18;82.82
26043;BME280;13818;52.156;5.382;2022-09-21T09:50:00;102495.69;;;17.34;82.19
26043;BME280;13818;52.156;5.382;2022-09-21T09:52:31;102494.59;;;17.38;80.13
26043;BME280;13818;52.156;5.382;2022-09-21T09:54:57;102502.16;;;17.49;81.21
26043;BME280;13818;52.156;5.382;2022-09-21T09:57:26;102495.09;;;17.27;82.58
26043;BME280;13818;52.156;5.382;2022-09-21T09:59:54;102490.84;;;17.04;85.68
26043;BME280;13818;52.156;5.382;2022-09-21T10:02:24;102498.03;;;17.22;85.00
26043;BME280;13818;52.156;5.382;2022-09-21T10:04:54;102491.44;;;17.47;83.85
26043;BME280;13818;52.156;5.382;2022-09-21T10:07:33;102495.31;;;17.42;81.80
26043;BME280;13818;52.156;5.382;2022-09-21T10:10:00;102497.22;;;17.39;82.76
26043;BME280;13818;52.156;5.382;2022-09-21T10:12:26;102490.22;;;17.72;78.87
26043;BME280;13818;52.156;5.382;2022-09-21T10:14:53;102498.16;;;17.58;77.38
26043;BME280;13818;52.156;5.382;2022-09-21T10:17:22;102491.72;;;17.23;80.29
26043;BME280;13818;52.156;5.382;2022-09-21T10:19:49;102492.47;;;17.45;80.56
26043;BME280;13818;52.156;5.382;2022-09-21T10:22:23;102491.28;;;17.14;79.71
26043;BME280;13818;52.156;5.382;2022-09-21T10:24:51;102483.41;;;17.09;77.96
26043;BME280;13818;52.156;5.382;2022-09-21T10:27:20;102488.28;;;17.20;78.00
26043;BME280;13818;52.156;5.382;2022-09-21T10:29:47;102483.56;;;17.06;78.54
26043;BME280;13818;52.156;5.382;2022-09-21T10:32:18;102487.00;;;16.89;80.40
26043;BME280;13818;52.156;5.382;2022-09-21T10:34:59;102486.25;;;17.25;77.45
26043;BME280;13818;52.156;5.382;2022-09-21T10:37:26;102485.22;;;17.28;74.23
26043;BME280;13818;52.156;5.382;2022-09-21T10:39:54;102479.44;;;17.35;74.28
26043;BME280;13818;52.156;5.382;2022-09-21T10:42:21;102480.03;;;17.23;73.80
26043;BME280;13818;52.156;5.382;2022-09-21T10:44:48;102482.44;;;17.29;74.24
26043;BME280;13818;52.156;5.382;2022-09-21T10:47:16;102482.31;;;17.50;70.22
26043;BME280;13818;52.156;5.382;2022-09-21T10:49:44;102468.75;;;17.34;69.71
26043;BME280;13818;52.156;5.382;2022-09-21T10:52:12;102478.25;;;17.23;70.63
26043;BME280;13818;52.156;5.382;2022-09-21T10:54:39;102476.13;;;17.11;71.89
26043;BME280;13818;52.156;5.382;2022-09-21T10:57:12;102479.25;;;17.02;71.61
26043;BME280;13818;52.156;5.382;2022-09-21T10:59:40;102472.69;;;17.27;69.06
26043;BME280;13818;52.156;5.382;2022-09-21T11:04:48;102476.00;;;17.51;64.23
26043;BME280;13818;52.156;5.382;2022-09-21T11:07:16;102473.00;;;17.75;63.20
26043;BME280;13818;52.156;5.382;2022-09-21T11:09:46;102475.22;;;17.84;63.57
26043;BME280;13818;52.156;5.382;2022-09-21T11:12:20;102472.09;;;17.93;60.19
26043;BME280;13818;52.156;5.382;2022-09-21T11:14:50;102472.97;;;17.94;60.95
26043;BME280;13818;52.156;5.382;2022-09-21T11:17:21;102464.66;;;17.98;64.28
26043;BME280;13818;52.156;5.382;2022-09-21T11:19:53;102464.22;;;17.88;63.83
26043;BME280;13818;52.156;5.382;2022-09-21T11:22:23;102460.22;;;17.97;64.71
26043;BME280;13818;52.156;5.382;2022-09-21T11:24:56;102459.16;;;18.00;63.97
26043;BME280;13818;52.156;5.382;2022-09-21T11:27:28;102460.75;;;18.04;63.22
26043;BME280;13818;52.156;5.382;2022-09-21T11:29:57;102453.41;;;17.71;61.81
26043;BME280;13818;52.156;5.382;2022-09-21T11:32:36;102459.13;;;17.28;61.13
26043;BME280;13818;52.156;5.382;2022-09-21T11:35:15;102461.56;;;17.52;64.19
26043;BME280;13818;52.156;5.382;2022-09-21T11:37:49;102451.91;;;17.48;65.29
26043;BME280;13818;52.156;5.382;2022-09-21T11:40:21;102456.38;;;17.66;63.55
26043;BME280;13818;52.156;5.382;2022-09-21T11:42:54;102452.97;;;17.80;55.18
26043;BME280;13818;52.156;5.382;2022-09-21T11:45:31;102458.91;;;17.87;54.27
26043;BME280;13818;52.156;5.382;2022-09-21T11:48:01;102454.00;;;17.95;53.31
26043;BME280;13818;52.156;5.382;2022-09-21T11:50:38;102451.72;;;18.05;53.59
26043;BME280;13818;52.156;5.382;2022-09-21T11:53:10;102457.00;;;18.07;52.81
26043;BME280;13818;52.156;5.382;2022-09-21T11:58:24;102445.75;;;18.16;52.97
26043;BME280;13818;52.156;5.382;2022-09-21T12:00:57;102434.25;;;18.12;53.51
26043;BME280;13818;52.156;5.382;2022-09-21T12:03:34;102439.25;;;18.20;52.93
26043;BME280;13818;52.156;5.382;2022-09-21T12:08:53;102435.41;;;18.24;53.17
26043;BME280;13818;52.156;5.382;2022-09-21T12:11:25;102432.38;;;18.30;53.00
26043;BME280;13818;52.156;5.382;2022-09-21T12:13:57;102420.25;;;18.21;53.55
26043;BME280;13818;52.156;5.382;2022-09-21T12:16:28;102423.63;;;18.43;53.25
26043;BME280;13818;52.156;5.382;2022-09-21T12:19:03;102417.72;;;18.52;52.73
26043;BME280;13818;52.156;5.382;2022-09-21T12:21:33;102422.59;;;18.45;54.25
26043;BME280;13818;52.156;5.382;2022-09-21T12:24:00;102417.31;;;18.60;51.98
26043;BME280;13818;52.156;5.382;2022-09-21T12:26:28;102417.22;;;18.61;51.00
26043;BME280;13818;52.156;5.382;2022-09-21T12:28:58;102414.91;;;18.71;50.15
26043;BME280;13818;52.156;5.382;2022-09-21T12:31:28;102412.69;;;18.62;50.59
26043;BME280;13818;52.156;5.382;2022-09-21T12:33:55;102410.25;;;18.57;50.67
26043;BME280;13818;52.156;5.382;2022-09-21T12:36:24;102415.91;;;18.52;51.90
26043;BME280;13818;52.156;5.382;2022-09-21T12:38:53;102412.50;;;18.49;51.69
26043;BME280;13818;52.156;5.382;2022-09-21T12:41:25;102413.97;;;18.38;51.60
26043;BME280;13818;52.156;5.382;2022-09-21T12:43:59;102409.59;;;18.36;49.68
26043;BME280;13818;52.156;5.382;2022-09-21T12:46:30;102406.69;;;18.23;49.88
26043;BME280;13818;52.156;5.382;2022-09-21T12:48:58;102403.72;;;18.28;50.55
26043;BME280;13818;52.156;5.382;2022-09-21T12:51:26;102392.38;;;18.38;49.81
26043;BME280;13818;52.156;5.382;2022-09-21T12:53:55;102399.91;;;18.32;50.25
26043;BME280;13818;52.156;5.382;2022-09-21T12:56:28;102399.03;;;18.31;50.23
26043;BME280;13818;52.156;5.382;2022-09-21T12:59:07;102395.41;;;18.32;51.10
26043;BME280;13818;52.156;5.382;2022-09-21T13:01:37;102398.59;;;18.73;50.47
26043;BME280;13818;52.156;5.382;2022-09-21T13:04:19;102393.81;;;18.78;48.53